sensor_id;sensor_type;location;lat;lon;timestamp;temperature;humidity
30280;DHT22;17097;50.916;5.344;2023-10-19T00:00:54;16.40;99.90
30280;DHT22;17097;50.916;5.344;2023-10-19T00:03:22;16.40;99.90
30280;DHT22;17097;50.916;5.344;2023-10-19T00:05:49;16.40;99.90
30280;DHT22;17097;50.916;5.344;2023-10-19T00:08:15;16.20;99.90
30280;DHT22;17097;50.916;5.344;2023-10-19T00:10:44;16.20;99.90
30280;DHT22;17097;50.916;5.344;2023-10-19T00:13:11;16.40;99.90
30280;DHT22;17097;50.916;5.344;2023-10-19T00:15:41;16.50;99.90
30280;DHT22;17097;50.916;5.344;2023-10-19T00:18:19;16.60;99.90
30280;DHT22;17097;50.916;5.344;2023-10-19T00:20:51;16.70;99.90
30280;DHT22;17097;50.916;5.344;2023-10-19T00:23:27;16.80;99.90
30280;DHT22;17097;50.916;5.344;2023-10-19T00:26:01;16.70;99.90
30280;DHT22;17097;50.916;5.344;2023-10-19T00:28:34;16.60;99.90
30280;DHT22;17097;50.916;5.344;2023-10-19T00:31:04;16.60;99.90
30280;DHT22;17097;50.916;5.344;2023-10-19T00:33:34;16.70;99.90
30280;DHT22;17097;50.916;5.344;2023-10-19T00:36:04;16.70;99.90
30280;DHT22;17097;50.916;5.344;2023-10-19T00:38:37;16.80;99.90
30280;DHT22;17097;50.916;5.344;2023-10-19T00:41:07;16.80;99.90
30280;DHT22;17097;50.916;5.344;2023-10-19T00:43:34;16.90;99.90
30280;DHT22;17097;50.916;5.344;2023-10-19T00:46:25;17.00;99.90
30280;DHT22;17097;50.916;5.344;2023-10-19T00:49:16;17.00;99.90
30280;DHT22;17097;50.916;5.344;2023-10-19T00:51:48;17.00;99.90
30280;DHT22;17097;50.916;5.344;2023-10-19T00:54:34;16.90;99.90
30280;DHT22;17097;50.916;5.344;2023-10-19T00:57:04;16.80;99.90
30280;DHT22;17097;50.916;5.344;2023-10-19T00:59:52;16.90;99.90
30280;DHT22;17097;50.916;5.344;2023-10-19T01:02:20;16.90;99.90
30280;DHT22;17097;50.916;5.344;2023-10-19T01:04:55;16.90;99.90
30280;DHT22;17097;50.916;5.344;2023-10-19T01:07:27;17.00;99.90
30280;DHT22;17097;50.916;5.344;2023-10-19T01:10:00;17.10;99.90
30280;DHT22;17097;50.916;5.344;2023-10-19T01:12:29;17.10;99.90
30280;DHT22;17097;50.916;5.344;2023-10-19T01:17:32;17.00;99.90
30280;DHT22;17097;50.916;5.344;2023-10-19T01:20:01;17.00;99.90
30280;DHT22;17097;50.916;5.344;2023-10-19T01:25:06;17.00;99.90
30280;DHT22;17097;50.916;5.344;2023-10-19T01:27:36;17.00;99.90
30280;DHT22;17097;50.916;5.344;2023-10-19T01:30:04;16.80;99.90
30280;DHT22;17097;50.916;5.344;2023-10-19T01:32:30;16.80;99.90
30280;DHT22;17097;50.916;5.344;2023-10-19T01:34:56;16.90;99.90
30280;DHT22;17097;50.916;5.344;2023-10-19T01:37:24;16.90;99.90
30280;DHT22;17097;50.916;5.344;2023-10-19T01:39:50;16.90;99.90
30280;DHT22;17097;50.916;5.344;2023-10-19T01:42:16;17.00;99.90
30280;DHT22;17097;50.916;5.344;2023-10-19T01:44:45;17.00;99.90
30280;DHT22;17097;50.916;5.344;2023-10-19T01:47:10;17.00;99.90
30280;DHT22;17097;50.916;5.344;2023-10-19T01:49:36;16.90;99.90
30280;DHT22;17097;50.916;5.344;2023-10-19T01:52:05;16.70;99.90
30280;DHT22;17097;50.916;5.344;2023-10-19T01:54:32;17.00;99.90
30280;DHT22;17097;50.916;5.344;2023-10-19T01:56:59;17.00;99.90
30280;DHT22;17097;50.916;5.344;2023-10-19T01:59:27;17.00;99.90
30280;DHT22;17097;50.916;5.344;2023-10-19T02:01:55;16.90;99.90
30280;DHT22;17097;50.916;5.344;2023-10-19T02:04:21;16.90;99.90
30280;DHT22;17097;50.916;5.344;2023-10-19T02:06:47;16.90;99.90
30280;DHT22;17097;50.916;5.344;2023-10-19T02:09:15;17.10;99.90
30280;DHT22;17097;50.916;5.344;2023-10-19T02:11:44;17.10;99.90
30280;DHT22;17097;50.916;5.344;2023-10-19T02:14:16;17.00;99.90
30280;DHT22;17097;50.916;5.344;2023-10-19T02:16:45;16.90;99.90
30280;DHT22;17097;50.916;5.344;2023-10-19T02:19:17;17.00;99.90
30280;DHT22;17097;50.916;5.344;2023-10-19T02:21:43;17.00;99.90
30280;DHT22;17097;50.916;5.344;2023-10-19T02:24:10;17.00;99.90
30280;DHT22;17097;50.916;5.344;2023-10-19T02:26:47;17.00;99.90
30280;DHT22;17097;50.916;5.344;2023-10-19T02:29:13;17.00;99.90
30280;DHT22;17097;50.916;5.344;2023-10-19T02:31:43;17.00;99.90
30280;DHT22;17097;50.916;5.344;2023-10-19T02:34:11;17.10;99.90
30280;DHT22;17097;50.916;5.344;2023-10-19T02:36:41;17.00;99.90
30280;DHT22;17097;50.916;5.344;2023-10-19T02:39:12;17.10;99.90
30280;DHT22;17097;50.916;5.344;2023-10-19T02:41:41;17.00;99.90
30280;DHT22;17097;50.916;5.344;2023-10-19T02:44:09;17.10;99.90
30280;DHT22;17097;50.916;5.344;2023-10-19T02:46:38;17.20;99.90
30280;DHT22;17097;50.916;5.344;2023-10-19T02:49:08;17.10;99.90
30280;DHT22;17097;50.916;5.344;2023-10-19T02:51:44;17.10;99.90
30280;DHT22;17097;50.916;5.344;2023-10-19T02:54:14;17.10;99.90
30280;DHT22;17097;50.916;5.344;2023-10-19T02:56:47;17.10;99.90
30280;DHT22;17097;50.916;5.344;2023-10-19T02:59:18;17.00;99.90
30280;DHT22;17097;50.916;5.344;2023-10-19T03:01:48;17.00;99.90
30280;DHT22;17097;50.916;5.344;2023-10-19T03:04:15;17.00;99.90
30280;DHT22;17097;50.916;5.344;2023-10-19T03:06:43;17.00;99.90
30280;DHT22;17097;50.916;5.344;2023-10-19T03:09:09;17.00;99.90
30280;DHT22;17097;50.916;5.344;2023-10-19T03:11:45;17.10;99.90
30280;DHT22;17097;50.916;5.344;2023-10-19T03:14:18;17.00;99.90
30280;DHT22;17097;50.916;5.344;2023-10-19T03:16:46;17.00;99.90
30280;DHT22;17097;50.916;5.344;2023-10-19T03:19:13;17.00;99.90
30280;DHT22;17097;50.916;5.344;2023-10-19T03:21:38;16.80;99.90
30280;DHT22;17097;50.916;5.344;2023-10-19T03:24:14;16.90;99.90
30280;DHT22;17097;50.916;5.344;2023-10-19T03:26:49;16.90;99.90
30280;DHT22;17097;50.916;5.344;2023-10-19T03:29:16;16.90;99.90
30280;DHT22;17097;50.916;5.344;2023-10-19T03:31:51;16.80;99.90
30280;DHT22;17097;50.916;5.344;2023-10-19T03:34:17;16.80;99.90
30280;DHT22;17097;50.916;5.344;2023-10-19T03:36:45;16.80;99.90
30280;DHT22;17097;50.916;5.344;2023-10-19T03:39:11;16.80;99.90
30280;DHT22;17097;50.916;5.344;2023-10-19T03:41:45;16.70;99.90
30280;DHT22;17097;50.916;5.344;2023-10-19T03:44:11;16.70;99.90
30280;DHT22;17097;50.916;5.344;2023-10-19T03:46:51;16.70;99.90
30280;DHT22;17097;50.916;5.344;2023-10-19T03:49:31;16.60;99.90
30280;DHT22;17097;50.916;5.344;2023-10-19T03:52:02;16.60;99.90
30280;DHT22;17097;50.916;5.344;2023-10-19T03:54:37;16.60;99.90
30280;DHT22;17097;50.916;5.344;2023-10-19T03:57:13;16.50;99.90
30280;DHT22;17097;50.916;5.344;2023-10-19T03:59:46;16.50;99.90
30280;DHT22;17097;50.916;5.344;2023-10-19T04:02:12;16.40;99.90
30280;DHT22;17097;50.916;5.344;2023-10-19T04:04:47;16.40;99.90
30280;DHT22;17097;50.916;5.344;2023-10-19T04:07:14;16.40;99.90
30280;DHT22;17097;50.916;5.344;2023-10-19T04:09:52;16.40;99.90
30280;DHT22;17097;50.916;5.344;2023-10-19T04:12:35;16.50;99.90
30280;DHT22;17097;50.916;5.344;2023-10-19T04:15:06;16.40;99.90
30280;DHT22;17097;50.916;5.344;2023-10-19T04:17:42;16.40;99.90
30280;DHT22;17097;50.916;5.344;2023-10-19T04:20:09;16.30;99.90
30280;DHT22;17097;50.916;5.344;2023-10-19T04:22:50;16.30;99.90
30280;DHT22;17097;50.916;5.344;2023-10-19T04:25:19;16.40;99.90
30280;DHT22;17097;50.916;5.344;2023-10-19T04:27:46;16.40;99.90
30280;DHT22;17097;50.916;5.344;2023-10-19T04:30:13;16.50;99.90
30280;DHT22;17097;50.916;5.344;2023-10-19T04:32:43;16.40;99.90
30280;DHT22;17097;50.916;5.344;2023-10-19T04:35:09;16.50;99.90
30280;DHT22;17097;50.916;5.344;2023-10-19T04:37:35;16.50;99.90
30280;DHT22;17097;50.916;5.344;2023-10-19T04:40:01;16.50;99.90
30280;DHT22;17097;50.916;5.344;2023-10-19T04:42:27;16.50;99.90
30280;DHT22;17097;50.916;5.344;2023-10-19T04:44:56;16.70;99.90
30280;DHT22;17097;50.916;5.344;2023-10-19T04:47:22;16.60;99.90
30280;DHT22;17097;50.916;5.344;2023-10-19T04:49:47;16.60;99.90
30280;DHT22;17097;50.916;5.344;2023-10-19T04:52:13;16.70;99.90
30280;DHT22;17097;50.916;5.344;2023-10-19T04:54:39;16.40;99.90
30280;DHT22;17097;50.916;5.344;2023-10-19T04:57:04;16.50;99.90
30280;DHT22;17097;50.916;5.344;2023-10-19T04:59:30;16.50;99.90
30280;DHT22;17097;50.916;5.344;2023-10-19T05:01:58;16.40;99.90
30280;DHT22;17097;50.916;5.344;2023-10-19T05:04:27;16.50;99.90
30280;DHT22;17097;50.916;5.344;2023-10-19T05:06:53;16.50;99.90
30280;DHT22;17097;50.916;5.344;2023-10-19T05:09:19;16.50;99.90
30280;DHT22;17097;50.916;5.344;2023-10-19T05:11:47;16.50;99.90
30280;DHT22;17097;50.916;5.344;2023-10-19T05:14:13;16.50;99.90
30280;DHT22;17097;50.916;5.344;2023-10-19T05:16:41;16.50;99.90
30280;DHT22;17097;50.916;5.344;2023-10-19T05:19:07;16.50;99.90
30280;DHT22;17097;50.916;5.344;2023-10-19T05:21:33;16.40;99.90
30280;DHT22;17097;50.916;5.344;2023-10-19T05:23:59;16.40;99.90
30280;DHT22;17097;50.916;5.344;2023-10-19T05:26:35;16.60;99.90
30280;DHT22;17097;50.916;5.344;2023-10-19T05:29:01;16.60;99.90
30280;DHT22;17097;50.916;5.344;2023-10-19T05:31:29;16.50;99.90
30280;DHT22;17097;50.916;5.344;2023-10-19T05:33:56;16.50;99.90
30280;DHT22;17097;50.916;5.344;2023-10-19T05:36:22;16.50;99.90
30280;DHT22;17097;50.916;5.344;2023-10-19T05:38:50;16.60;99.90
30280;DHT22;17097;50.916;5.344;2023-10-19T05:41:17;16.70;99.90
30280;DHT22;17097;50.916;5.344;2023-10-19T05:43:44;16.80;99.90
30280;DHT22;17097;50.916;5.344;2023-10-19T05:46:09;16.70;99.90
30280;DHT22;17097;50.916;5.344;2023-10-19T05:48:36;16.70;99.90
30280;DHT22;17097;50.916;5.344;2023-10-19T05:51:04;16.80;99.90
30280;DHT22;17097;50.916;5.344;2023-10-19T05:53:29;16.80;99.90
30280;DHT22;17097;50.916;5.344;2023-10-19T05:55:55;16.80;99.90
30280;DHT22;17097;50.916;5.344;2023-10-19T05:58:21;16.90;99.90
30280;DHT22;17097;50.916;5.344;2023-10-19T06:00:46;16.90;99.90
30280;DHT22;17097;50.916;5.344;2023-10-19T06:03:15;16.80;99.90
30280;DHT22;17097;50.916;5.344;2023-10-19T06:05:40;16.90;99.90
30280;DHT22;17097;50.916;5.344;2023-10-19T06:08:08;16.90;99.90
30280;DHT22;17097;50.916;5.344;2023-10-19T06:10:35;16.80;99.90
30280;DHT22;17097;50.916;5.344;2023-10-19T06:13:00;16.90;99.90
30280;DHT22;17097;50.916;5.344;2023-10-19T06:15:27;16.90;99.90
30280;DHT22;17097;50.916;5.344;2023-10-19T06:17:54;16.80;99.90
30280;DHT22;17097;50.916;5.344;2023-10-19T06:20:19;16.80;99.90
30280;DHT22;17097;50.916;5.344;2023-10-19T06:22:47;16.80;99.90
30280;DHT22;17097;50.916;5.344;2023-10-19T06:25:17;16.90;99.90
30280;DHT22;17097;50.916;5.344;2023-10-19T06:27:43;17.00;99.90
30280;DHT22;17097;50.916;5.344;2023-10-19T06:30:12;17.10;99.90
30280;DHT22;17097;50.916;5.344;2023-10-19T06:32:44;17.00;99.90
30280;DHT22;17097;50.916;5.344;2023-10-19T06:35:09;17.00;99.90
30280;DHT22;17097;50.916;5.344;2023-10-19T06:37:36;17.00;99.90
30280;DHT22;17097;50.916;5.344;2023-10-19T06:40:02;17.10;99.90
30280;DHT22;17097;50.916;5.344;2023-10-19T06:42:30;17.00;99.90
30280;DHT22;17097;50.916;5.344;2023-10-19T06:44:58;17.00;99.90
30280;DHT22;17097;50.916;5.344;2023-10-19T06:47:23;17.00;99.90
30280;DHT22;17097;50.916;5.344;2023-10-19T06:49:51;17.10;99.90
30280;DHT22;17097;50.916;5.344;2023-10-19T06:52:17;17.10;99.90
30280;DHT22;17097;50.916;5.344;2023-10-19T06:54:45;17.20;99.90
30280;DHT22;17097;50.916;5.344;2023-10-19T06:57:11;17.20;99.90
30280;DHT22;17097;50.916;5.344;2023-10-19T06:59:37;17.10;99.90
30280;DHT22;17097;50.916;5.344;2023-10-19T07:02:04;17.10;99.90
30280;DHT22;17097;50.916;5.344;2023-10-19T07:04:33;17.20;99.90
30280;DHT22;17097;50.916;5.344;2023-10-19T07:06:59;17.30;99.90
30280;DHT22;17097;50.916;5.344;2023-10-19T07:09:27;17.30;99.90
30280;DHT22;17097;50.916;5.344;2023-10-19T07:11:53;17.30;99.90
30280;DHT22;17097;50.916;5.344;2023-10-19T07:14:20;17.30;99.90
30280;DHT22;17097;50.916;5.344;2023-10-19T07:16:49;17.20;99.90
30280;DHT22;17097;50.916;5.344;2023-10-19T07:19:17;17.20;99.90
30280;DHT22;17097;50.916;5.344;2023-10-19T07:21:43;17.20;99.90
30280;DHT22;17097;50.916;5.344;2023-10-19T07:24:17;17.30;99.90
30280;DHT22;17097;50.916;5.344;2023-10-19T07:26:44;17.30;99.90
30280;DHT22;17097;50.916;5.344;2023-10-19T07:29:20;17.30;99.90
30280;DHT22;17097;50.916;5.344;2023-10-19T07:31:45;17.40;99.90
30280;DHT22;17097;50.916;5.344;2023-10-19T07:34:11;17.50;99.90
30280;DHT22;17097;50.916;5.344;2023-10-19T07:36:40;17.50;99.90
30280;DHT22;17097;50.916;5.344;2023-10-19T07:39:08;17.80;99.90
30280;DHT22;17097;50.916;5.344;2023-10-19T07:41:40;18.10;99.90
30280;DHT22;17097;50.916;5.344;2023-10-19T07:44:06;18.40;99.90
30280;DHT22;17097;50.916;5.344;2023-10-19T07:46:31;18.60;99.90
30280;DHT22;17097;50.916;5.344;2023-10-19T07:48:57;18.80;99.90
30280;DHT22;17097;50.916;5.344;2023-10-19T07:51:29;19.10;99.90
30280;DHT22;17097;50.916;5.344;2023-10-19T07:53:55;19.50;99.90
30280;DHT22;17097;50.916;5.344;2023-10-19T07:56:22;19.70;99.90
30280;DHT22;17097;50.916;5.344;2023-10-19T07:58:51;19.80;99.90
30280;DHT22;17097;50.916;5.344;2023-10-19T08:01:17;19.90;99.90
30280;DHT22;17097;50.916;5.344;2023-10-19T08:03:45;20.00;99.90
30280;DHT22;17097;50.916;5.344;2023-10-19T08:06:11;20.20;99.90
30280;DHT22;17097;50.916;5.344;2023-10-19T08:08:37;20.30;99.90
30280;DHT22;17097;50.916;5.344;2023-10-19T08:11:03;20.50;99.90
30280;DHT22;17097;50.916;5.344;2023-10-19T08:13:30;20.80;99.90
30280;DHT22;17097;50.916;5.344;2023-10-19T08:16:00;20.90;99.90
30280;DHT22;17097;50.916;5.344;2023-10-19T08:18:25;20.90;99.90
30280;DHT22;17097;50.916;5.344;2023-10-19T08:20:56;20.80;99.90
30280;DHT22;17097;50.916;5.344;2023-10-19T08:23:25;20.60;99.90
30280;DHT22;17097;50.916;5.344;2023-10-19T08:25:53;20.60;99.90
30280;DHT22;17097;50.916;5.344;2023-10-19T08:28:21;20.50;99.90
30280;DHT22;17097;50.916;5.344;2023-10-19T08:30:49;20.40;99.90
30280;DHT22;17097;50.916;5.344;2023-10-19T08:33:26;20.20;99.90
30280;DHT22;17097;50.916;5.344;2023-10-19T08:35:55;20.20;99.90
30280;DHT22;17097;50.916;5.344;2023-10-19T08:38:25;20.10;99.90
30280;DHT22;17097;50.916;5.344;2023-10-19T08:40:54;20.00;99.90
30280;DHT22;17097;50.916;5.344;2023-10-19T08:43:23;20.00;99.90
30280;DHT22;17097;50.916;5.344;2023-10-19T08:45:49;19.90;99.90
30280;DHT22;17097;50.916;5.344;2023-10-19T08:48:15;19.90;99.90
30280;DHT22;17097;50.916;5.344;2023-10-19T08:50:41;19.90;99.90
30280;DHT22;17097;50.916;5.344;2023-10-19T08:53:09;19.90;99.90
30280;DHT22;17097;50.916;5.344;2023-10-19T08:55:35;19.90;99.90
30280;DHT22;17097;50.916;5.344;2023-10-19T08:58:01;20.10;99.90
30280;DHT22;17097;50.916;5.344;2023-10-19T09:00:37;20.20;99.90
30280;DHT22;17097;50.916;5.344;2023-10-19T09:03:07;20.10;99.90
30280;DHT22;17097;50.916;5.344;2023-10-19T09:05:38;19.80;99.90
30280;DHT22;17097;50.916;5.344;2023-10-19T09:08:05;19.80;99.90
30280;DHT22;17097;50.916;5.344;2023-10-19T09:10:32;19.70;99.90
30280;DHT22;17097;50.916;5.344;2023-10-19T09:13:02;19.70;99.90
30280;DHT22;17097;50.916;5.344;2023-10-19T09:15:29;19.70;99.90
30280;DHT22;17097;50.916;5.344;2023-10-19T09:18:18;19.80;99.90
30280;DHT22;17097;50.916;5.344;2023-10-19T09:20:48;19.80;99.90
30280;DHT22;17097;50.916;5.344;2023-10-19T09:23:34;19.90;99.90
30280;DHT22;17097;50.916;5.344;2023-10-19T09:26:01;19.90;99.90
30280;DHT22;17097;50.916;5.344;2023-10-19T09:28:37;19.90;99.90
30280;DHT22;17097;50.916;5.344;2023-10-19T09:31:03;19.90;99.90
30280;DHT22;17097;50.916;5.344;2023-10-19T09:33:32;20.00;99.90
30280;DHT22;17097;50.916;5.344;2023-10-19T09:36:01;20.00;99.90
30280;DHT22;17097;50.916;5.344;2023-10-19T09:38:32;19.90;99.90
30280;DHT22;17097;50.916;5.344;2023-10-19T09:40:58;20.00;99.90
30280;DHT22;17097;50.916;5.344;2023-10-19T09:43:35;19.90;99.90
30280;DHT22;17097;50.916;5.344;2023-10-19T09:46:07;19.80;99.90
30280;DHT22;17097;50.916;5.344;2023-10-19T09:48:43;19.60;99.90
30280;DHT22;17097;50.916;5.344;2023-10-19T09:51:14;19.40;99.90
30280;DHT22;17097;50.916;5.344;2023-10-19T09:53:47;19.60;99.90
30280;DHT22;17097;50.916;5.344;2023-10-19T09:56:21;19.70;99.90
30280;DHT22;17097;50.916;5.344;2023-10-19T09:58:54;19.90;99.90
30280;DHT22;17097;50.916;5.344;2023-10-19T10:01:21;20.10;99.90
30280;DHT22;17097;50.916;5.344;2023-10-19T10:03:51;20.10;99.90
30280;DHT22;17097;50.916;5.344;2023-10-19T10:06:27;20.20;99.90
30280;DHT22;17097;50.916;5.344;2023-10-19T10:08:56;20.20;99.90
30280;DHT22;17097;50.916;5.344;2023-10-19T10:11:25;20.40;99.90
30280;DHT22;17097;50.916;5.344;2023-10-19T10:13:58;20.40;99.90
30280;DHT22;17097;50.916;5.344;2023-10-19T10:16:28;20.40;99.90
30280;DHT22;17097;50.916;5.344;2023-10-19T10:18:58;20.50;99.90
30280;DHT22;17097;50.916;5.344;2023-10-19T10:21:26;20.30;99.90
30280;DHT22;17097;50.916;5.344;2023-10-19T10:23:56;20.40;99.90
30280;DHT22;17097;50.916;5.344;2023-10-19T10:26:24;20.20;99.90
30280;DHT22;17097;50.916;5.344;2023-10-19T10:29:18;20.00;99.90
30280;DHT22;17097;50.916;5.344;2023-10-19T10:31:48;20.00;99.90
30280;DHT22;17097;50.916;5.344;2023-10-19T10:37:09;20.20;99.90
30280;DHT22;17097;50.916;5.344;2023-10-19T10:39:37;20.10;99.90
30280;DHT22;17097;50.916;5.344;2023-10-19T10:42:04;20.20;99.90
30280;DHT22;17097;50.916;5.344;2023-10-19T10:44:47;20.30;99.90
30280;DHT22;17097;50.916;5.344;2023-10-19T10:47:19;20.40;99.90
30280;DHT22;17097;50.916;5.344;2023-10-19T10:49:59;20.50;99.90
30280;DHT22;17097;50.916;5.344;2023-10-19T10:52:29;20.70;99.90
30280;DHT22;17097;50.916;5.344;2023-10-19T10:55:15;20.80;99.90
30280;DHT22;17097;50.916;5.344;2023-10-19T10:57:44;21.10;99.90
30280;DHT22;17097;50.916;5.344;2023-10-19T11:00:16;20.90;99.90
30280;DHT22;17097;50.916;5.344;2023-10-19T11:02:43;21.10;99.90
30280;DHT22;17097;50.916;5.344;2023-10-19T11:05:16;21.10;99.90
30280;DHT22;17097;50.916;5.344;2023-10-19T11:10:28;21.00;99.90
30280;DHT22;17097;50.916;5.344;2023-10-19T11:13:04;20.90;99.90
30280;DHT22;17097;50.916;5.344;2023-10-19T11:15:30;20.90;99.90
30280;DHT22;17097;50.916;5.344;2023-10-19T11:17:55;21.00;99.90
30280;DHT22;17097;50.916;5.344;2023-10-19T11:20:23;21.20;99.90
30280;DHT22;17097;50.916;5.344;2023-10-19T11:22:51;21.20;99.90
30280;DHT22;17097;50.916;5.344;2023-10-19T11:25:21;21.40;99.90
30280;DHT22;17097;50.916;5.344;2023-10-19T11:27:47;21.50;99.90
30280;DHT22;17097;50.916;5.344;2023-10-19T11:30:23;21.50;99.90
30280;DHT22;17097;50.916;5.344;2023-10-19T11:32:49;21.60;99.90
30280;DHT22;17097;50.916;5.344;2023-10-19T11:35:21;21.50;99.90
30280;DHT22;17097;50.916;5.344;2023-10-19T11:37:52;21.50;99.90
30280;DHT22;17097;50.916;5.344;2023-10-19T11:40:19;21.50;99.90
30280;DHT22;17097;50.916;5.344;2023-10-19T11:42:45;21.40;99.90
30280;DHT22;17097;50.916;5.344;2023-10-19T11:45:12;21.20;99.90
30280;DHT22;17097;50.916;5.344;2023-10-19T11:47:44;21.30;99.90
30280;DHT22;17097;50.916;5.344;2023-10-19T11:50:11;21.00;99.90
30280;DHT22;17097;50.916;5.344;2023-10-19T11:52:44;21.00;99.90
30280;DHT22;17097;50.916;5.344;2023-10-19T11:55:13;20.70;99.90
30280;DHT22;17097;50.916;5.344;2023-10-19T11:57:40;20.60;99.90
30280;DHT22;17097;50.916;5.344;2023-10-19T12:00:06;20.60;99.90
30280;DHT22;17097;50.916;5.344;2023-10-19T12:02:35;20.60;99.90
30280;DHT22;17097;50.916;5.344;2023-10-19T12:05:04;20.60;99.90
30280;DHT22;17097;50.916;5.344;2023-10-19T12:07:30;20.30;99.90
30280;DHT22;17097;50.916;5.344;2023-10-19T12:09:58;20.20;99.90
30280;DHT22;17097;50.916;5.344;2023-10-19T12:12:23;20.30;99.90
30280;DHT22;17097;50.916;5.344;2023-10-19T12:14:50;20.20;99.90
30280;DHT22;17097;50.916;5.344;2023-10-19T12:17:16;20.10;99.90
30280;DHT22;17097;50.916;5.344;2023-10-19T12:19:43;20.10;99.90
30280;DHT22;17097;50.916;5.344;2023-10-19T12:22:11;20.10;99.90
30280;DHT22;17097;50.916;5.344;2023-10-19T12:24:37;20.00;99.90
30280;DHT22;17097;50.916;5.344;2023-10-19T12:27:02;19.90;99.90
30280;DHT22;17097;50.916;5.344;2023-10-19T12:29:28;19.90;99.90
30280;DHT22;17097;50.916;5.344;2023-10-19T12:31:57;19.80;99.90
30280;DHT22;17097;50.916;5.344;2023-10-19T12:34:23;19.90;99.90
30280;DHT22;17097;50.916;5.344;2023-10-19T12:36:48;19.80;99.90
30280;DHT22;17097;50.916;5.344;2023-10-19T12:39:18;19.70;99.90
30280;DHT22;17097;50.916;5.344;2023-10-19T12:42:03;19.80;99.90
30280;DHT22;17097;50.916;5.344;2023-10-19T12:44:29;19.70;99.90
30280;DHT22;17097;50.916;5.344;2023-10-19T12:46:55;19.80;99.90
30280;DHT22;17097;50.916;5.344;2023-10-19T12:49:25;19.70;99.90
30280;DHT22;17097;50.916;5.344;2023-10-19T12:51:52;19.50;99.90
30280;DHT22;17097;50.916;5.344;2023-10-19T12:54:18;19.30;99.90
30280;DHT22;17097;50.916;5.344;2023-10-19T12:56:46;19.60;99.90
30280;DHT22;17097;50.916;5.344;2023-10-19T12:59:14;19.60;99.90
30280;DHT22;17097;50.916;5.344;2023-10-19T13:01:45;19.40;99.90
30280;DHT22;17097;50.916;5.344;2023-10-19T13:04:17;19.50;99.90
30280;DHT22;17097;50.916;5.344;2023-10-19T13:06:44;19.50;99.90
30280;DHT22;17097;50.916;5.344;2023-10-19T13:09:12;19.50;99.90
30280;DHT22;17097;50.916;5.344;2023-10-19T13:11:40;19.30;99.90
30280;DHT22;17097;50.916;5.344;2023-10-19T13:14:09;19.30;99.90
30280;DHT22;17097;50.916;5.344;2023-10-19T13:16:37;19.20;99.90
30280;DHT22;17097;50.916;5.344;2023-10-19T13:19:03;19.40;99.90
30280;DHT22;17097;50.916;5.344;2023-10-19T13:21:37;19.40;99.90
30280;DHT22;17097;50.916;5.344;2023-10-19T13:24:03;19.50;99.90
30280;DHT22;17097;50.916;5.344;2023-10-19T13:26:29;19.50;99.90
30280;DHT22;17097;50.916;5.344;2023-10-19T13:28:57;19.40;99.90
30280;DHT22;17097;50.916;5.344;2023-10-19T13:31:25;19.30;99.90
30280;DHT22;17097;50.916;5.344;2023-10-19T13:33:52;19.40;99.90
30280;DHT22;17097;50.916;5.344;2023-10-19T13:36:18;19.40;99.90
30280;DHT22;17097;50.916;5.344;2023-10-19T13:38:44;19.50;99.90
30280;DHT22;17097;50.916;5.344;2023-10-19T13:41:10;19.60;99.90
30280;DHT22;17097;50.916;5.344;2023-10-19T13:43:37;19.50;99.90
30280;DHT22;17097;50.916;5.344;2023-10-19T13:46:03;19.50;99.90
30280;DHT22;17097;50.916;5.344;2023-10-19T13:48:31;19.50;99.90
30280;DHT22;17097;50.916;5.344;2023-10-19T13:50:59;19.60;99.90
30280;DHT22;17097;50.916;5.344;2023-10-19T13:53:38;19.70;99.90
30280;DHT22;17097;50.916;5.344;2023-10-19T13:56:08;19.80;99.90
30280;DHT22;17097;50.916;5.344;2023-10-19T13:58:35;19.80;99.90
30280;DHT22;17097;50.916;5.344;2023-10-19T14:01:00;19.90;99.90
30280;DHT22;17097;50.916;5.344;2023-10-19T14:03:26;19.90;99.90
30280;DHT22;17097;50.916;5.344;2023-10-19T14:05:52;20.00;99.90
30280;DHT22;17097;50.916;5.344;2023-10-19T14:08:21;20.00;99.90
30280;DHT22;17097;50.916;5.344;2023-10-19T14:10:47;19.90;99.90
30280;DHT22;17097;50.916;5.344;2023-10-19T14:13:16;19.80;99.90
30280;DHT22;17097;50.916;5.344;2023-10-19T14:15:41;19.90;99.90
30280;DHT22;17097;50.916;5.344;2023-10-19T14:18:08;20.00;99.90
30280;DHT22;17097;50.916;5.344;2023-10-19T14:20:34;19.80;99.90
30280;DHT22;17097;50.916;5.344;2023-10-19T14:23:02;19.90;99.90
30280;DHT22;17097;50.916;5.344;2023-10-19T14:25:30;20.10;99.90
30280;DHT22;17097;50.916;5.344;2023-10-19T14:27:57;20.00;99.90
30280;DHT22;17097;50.916;5.344;2023-10-19T14:30:27;20.00;99.90
30280;DHT22;17097;50.916;5.344;2023-10-19T14:32:54;20.00;99.90
30280;DHT22;17097;50.916;5.344;2023-10-19T14:35:21;20.10;99.90
30280;DHT22;17097;50.916;5.344;2023-10-19T14:37:50;20.20;99.90
30280;DHT22;17097;50.916;5.344;2023-10-19T14:40:19;20.20;99.90
30280;DHT22;17097;50.916;5.344;2023-10-19T14:42:49;20.30;99.90
30280;DHT22;17097;50.916;5.344;2023-10-19T14:45:19;20.40;99.90
30280;DHT22;17097;50.916;5.344;2023-10-19T14:47:49;20.40;99.90
30280;DHT22;17097;50.916;5.344;2023-10-19T14:50:17;20.50;99.90
30280;DHT22;17097;50.916;5.344;2023-10-19T14:52:45;20.60;99.90
30280;DHT22;17097;50.916;5.344;2023-10-19T14:55:11;20.50;99.90
30280;DHT22;17097;50.916;5.344;2023-10-19T14:57:39;20.60;99.90
30280;DHT22;17097;50.916;5.344;2023-10-19T15:00:06;20.60;99.90
30280;DHT22;17097;50.916;5.344;2023-10-19T15:02:46;20.60;99.90
30280;DHT22;17097;50.916;5.344;2023-10-19T15:05:12;20.70;99.90
30280;DHT22;17097;50.916;5.344;2023-10-19T15:07:51;20.70;99.90
30280;DHT22;17097;50.916;5.344;2023-10-19T15:12:50;20.70;99.90
30280;DHT22;17097;50.916;5.344;2023-10-19T15:15:16;20.60;99.90
30280;DHT22;17097;50.916;5.344;2023-10-19T15:17:45;20.60;99.90
30280;DHT22;17097;50.916;5.344;2023-10-19T15:20:13;20.60;99.90
30280;DHT22;17097;50.916;5.344;2023-10-19T15:22:43;20.60;99.90
30280;DHT22;17097;50.916;5.344;2023-10-19T15:25:10;20.50;99.90
30280;DHT22;17097;50.916;5.344;2023-10-19T15:27:42;20.50;99.90
30280;DHT22;17097;50.916;5.344;2023-10-19T15:30:10;20.60;99.90
30280;DHT22;17097;50.916;5.344;2023-10-19T15:32:39;20.60;99.90
30280;DHT22;17097;50.916;5.344;2023-10-19T15:35:07;20.60;99.90
30280;DHT22;17097;50.916;5.344;2023-10-19T15:37:35;20.70;99.90
30280;DHT22;17097;50.916;5.344;2023-10-19T15:40:02;20.60;99.90
30280;DHT22;17097;50.916;5.344;2023-10-19T15:42:29;20.60;99.90
30280;DHT22;17097;50.916;5.344;2023-10-19T15:44:55;20.50;99.90
30280;DHT22;17097;50.916;5.344;2023-10-19T15:47:21;20.50;99.90
30280;DHT22;17097;50.916;5.344;2023-10-19T15:49:54;20.30;99.90
30280;DHT22;17097;50.916;5.344;2023-10-19T15:52:24;20.20;99.90
30280;DHT22;17097;50.916;5.344;2023-10-19T15:54:51;20.10;99.90